Bessemer City, North Carolina
Current Conditions -  °F | °C
As of 5:54 PM on Wednesday 22 Oct 2014 (Local Time) from KAKH Reporting Station
Clear Clear  
Wind Chill: 61°   Ceiling: Unl
Heat Index: 61°   Visibility: 10mi
Dew Point: 39°   Wind: 8mph
Humidity: 44%   Direction: 340°NNW
Pressure: 30.05"   Gusts: 21mph
Location:  35.28°N, 81.28°W
Report Text: KAKH 222154Z AUTO 34007G18KT 310V010 10SM CLR 16/04 A3005 RMK AO2 SLP177 T01610039
Loading
Personal Weather Stations






























Interactive Weather Map
Tropical Storm Tracking
New forecast layout! Learn more

10-Day Weather Forecast

Advertisements
Track Severe Weather on mobile